Hagi, Japan

5:04 PM JST on July 14, 2014 (GMT +0900)
Iwami (RJOW) Elev 177 ft | 34.68 °N, 131.79 °E | Change Station

Current weather conditions updated 1 hour ago

Partly Cloudy
Partly Cloudy
77 °F
Feels Like 77 °F
N
8
Wind Variable Wind from WNW

Tomorrow is forecast to be Cooler than today. Showers and thunderstorms.

Today
High -- | Low -- °F
--% Chance of Precip.
Yesterday
High -- | Low -- °F
Precip. -- in
5:12 AM 7:27 PM
Waning Gibbous, 95% visible
Pressure 29.77 in
Visibility 6.2 miles
Clouds Few 2000 ft
Dew Point 75 °F
Humidity 94%
Rainfall 0.00 in
Snow Depth Not available.
UV 6 out of 12
Pollen Not available.
Air Quality Not available.
Flu Activity Not available.
METAR RJOW 140700Z 30007KT 9999 FEW020 SCT/// 25/24 Q1008

More Conditions Fewer Conditions

Pressure 29.77 in
Visibility 6.2 miles
Clouds Few 2000 ft
Dew Point 75 °F
Humidity 94%
Rainfall 0.00 in
Snow Depth Not available.
UV 6 out of 12
Pollen Not available.
Air Quality Not available.
Flu Activity Not available.
METAR RJOW 140700Z 30007KT 9999 FEW020 SCT/// 25/24 Q1008

More Conditions Fewer Conditions

10-Day Weather Forecast

Almanac

Astronomy

Jul. 14, 2014 Rise Set
Actual Time 5:12 AM JST 7:27 PM JST
Civil Twilight 4:43 AM JST 7:56 PM JST
Nautical Twilight 4:08 AM JST 8:31 PM JST
Astronomical Twilight 3:29 AM JST 9:10 PM JST
Moon 8:41 PM JST 7:03 AM JST
Length of Visible Light 15h 13m
Length of Day
14h 15m
Tomorrow will be 1m 3s shorter.
Waning Gibbous, 95% of the Moon is Illuminated
Today
Waning Gibbous
Jul 18
Last Quarter
Jul 26
New
Aug 3
First Quarter
Aug 10
Full

Yesterday's Extremes

Country Highs Country Lows

Community

WunderPhotos

Upload Photos

1,733,572 photos uploaded!

Nearby

Snow Depth

Not available.

Earthquake Activity

City Distance Mag. Time & Date
No recent earthquake activity has been reported nearby.
Minimum magnitude displayed is 2.5.

Coastal Water Temperatures

Place Temperature
No Stations Reporting

Nearby Weather Stations

There are no personal weather stations in this area.